Time;durP1;ratioP1;P1;durP2;ratioP2;P2;SDS_P1;SDS_P2;PMS_P1;PMS_P2;Temp;Humidity;BMP_temperature;BMP_pressure;BME280_temperature;BME280_humidity;BME280_pressure;Samples;Min_cycle;Max_cycle;Signal;HPM_P1;HPM_P2
2023/01/14 00:01:16;;;;;;;30.92;22.52;;;;;;;;;;5034056;28;20041;-68
2023/01/14 00:03:44;;;;;;;40.53;27.45;;;;;;;;;;5038059;28;20049;-68
2023/01/14 00:06:12;;;;;;;26.02;19.17;;;;;;;;;;5040066;28;20822;-69
2023/01/14 00:08:39;;;;;;;21.92;15.70;;;;;;;;;;5028641;28;20153;-68
2023/01/14 00:11:06;;;;;;;19.98;15.05;;;;;;;;;;5054636;28;20076;-68
2023/01/14 00:13:34;;;;;;;17.52;14.32;;;;;;;;;;5031225;28;20052;-68
2023/01/14 00:16:02;;;;;;;18.25;14.43;;;;;;;;;;5035785;28;20065;-68
2023/01/14 00:18:30;;;;;;;17.13;13.45;;;;;;;;;;5029421;28;20053;-68
2023/01/14 00:21:06;;;;;;;17.63;14.30;;;;;;;;;;5037974;28;20136;-68
2023/01/14 00:23:34;;;;;;;19.88;15.05;;;;;;;;;;5032778;28;20050;-67
2023/01/14 00:26:02;;;;;;;20.77;14.18;;;;;;;;;;5061049;28;20100;-68
2023/01/14 00:28:29;;;;;;;16.58;12.05;;;;;;;;;;5041018;28;20087;-68
2023/01/14 00:31:03;;;;;;;17.30;12.38;;;;;;;;;;5043250;28;20053;-69
2023/01/14 00:33:30;;;;;;;23.23;17.25;;;;;;;;;;5042298;28;20052;-69
2023/01/14 00:35:57;;;;;;;29.40;19.67;;;;;;;;;;5038533;28;20076;-69
2023/01/14 00:38:24;;;;;;;39.92;22.70;;;;;;;;;;5036904;28;20310;-69
2023/01/14 00:40:59;;;;;;;59.90;43.97;;;;;;;;;;5042087;28;20045;-70
2023/01/14 00:43:35;;;;;;;34.03;23.58;;;;;;;;;;5040465;28;20056;-69
2023/01/14 00:46:02;;;;;;;41.42;29.55;;;;;;;;;;5041863;28;20045;-68
2023/01/14 00:48:29;;;;;;;47.70;36.05;;;;;;;;;;5040418;28;20055;-68
2023/01/14 00:50:56;;;;;;;32.33;24.55;;;;;;;;;;5036573;28;21352;-68
2023/01/14 00:53:23;;;;;;;25.77;18.83;;;;;;;;;;5039611;28;20053;-68
2023/01/14 00:55:50;;;;;;;22.27;18.58;;;;;;;;;;5042684;28;20660;-68
2023/01/14 00:58:17;;;;;;;20.08;16.40;;;;;;;;;;5038775;28;20136;-68
2023/01/14 01:00:47;;;;;;;16.95;10.85;;;;;;;;;;5057816;28;20289;-68
2023/01/14 01:03:14;;;;;;;23.40;15.98;;;;;;;;;;5039730;28;20041;-69
2023/01/14 01:05:41;;;;;;;22.65;16.98;;;;;;;;;;5040178;28;20049;-70
2023/01/14 01:08:11;;;;;;;20.67;17.05;;;;;;;;;;5041140;28;20041;-69
2023/01/14 01:10:40;;;;;;;19.23;11.50;;;;;;;;;;5038153;28;20347;-65
2023/01/14 01:13:07;;;;;;;22.50;16.63;;;;;;;;;;5034196;28;20065;-68
2023/01/14 01:15:35;;;;;;;15.88;14.05;;;;;;;;;;5055997;28;20045;-68
2023/01/14 01:18:03;;;;;;;16.52;13.73;;;;;;;;;;5034040;28;20052;-68
2023/01/14 01:20:30;;;;;;;17.63;15.02;;;;;;;;;;5055262;28;20037;-68
2023/01/14 01:22:58;;;;;;;17.77;14.02;;;;;;;;;;5035109;28;20173;-68
2023/01/14 01:25:25;;;;;;;17.25;14.18;;;;;;;;;;5057834;28;20063;-68
2023/01/14 01:27:56;;;;;;;14.20;12.65;;;;;;;;;;5036036;28;20048;-69
2023/01/14 01:30:24;;;;;;;27.13;17.08;;;;;;;;;;5057020;28;20049;-68
2023/01/14 01:32:54;;;;;;;17.85;13.90;;;;;;;;;;5036549;28;20059;-67
2023/01/14 01:35:22;;;;;;;16.77;14.95;;;;;;;;;;5035482;28;20048;-68
2023/01/14 01:37:49;;;;;;;16.42;13.80;;;;;;;;;;5032815;28;20037;-67
2023/01/14 01:40:17;;;;;;;21.10;16.00;;;;;;;;;;5031805;28;20778;-69
2023/01/14 01:42:56;;;;;;;16.13;13.65;;;;;;;;;;5028651;28;20107;-68
2023/01/14 01:45:40;;;;;;;18.58;15.20;;;;;;;;;;5033426;28;20041;-67
2023/01/14 01:48:12;;;;;;;18.20;15.88;;;;;;;;;;5033322;28;20057;-68
2023/01/14 01:50:41;;;;;;;16.88;15.18;;;;;;;;;;5030034;28;20725;-68
2023/01/14 01:53:08;;;;;;;16.15;13.38;;;;;;;;;;5034722;28;20169;-68
2023/01/14 01:55:38;;;;;;;17.13;13.50;;;;;;;;;;5033547;28;20076;-68
2023/01/14 01:58:05;;;;;;;16.52;12.98;;;;;;;;;;5035831;28;20045;-67
2023/01/14 02:00:32;;;;;;;15.00;12.65;;;;;;;;;;5033900;28;20068;-68
2023/01/14 02:03:01;;;;;;;15.18;13.05;;;;;;;;;;5037428;28;20523;-68
2023/01/14 02:05:28;;;;;;;16.58;13.05;;;;;;;;;;5034678;28;20029;-68
2023/01/14 02:07:56;;;;;;;15.15;13.35;;;;;;;;;;5041896;28;20040;-68
2023/01/14 02:10:41;;;;;;;16.25;12.38;;;;;;;;;;5034300;28;20087;-69
2023/01/14 02:13:30;;;;;;;14.82;13.20;;;;;;;;;;5036614;28;20056;-69
2023/01/14 02:16:04;;;;;;;15.68;11.90;;;;;;;;;;5050304;28;20856;-69
2023/01/14 02:18:47;;;;;;;18.23;14.57;;;;;;;;;;5034337;28;20049;-69
2023/01/14 02:21:17;;;;;;;15.57;12.73;;;;;;;;;;5029621;28;20834;-68
2023/01/14 02:23:47;;;;;;;13.93;11.43;;;;;;;;;;5036288;28;20392;-69
2023/01/14 02:26:21;;;;;;;14.38;11.35;;;;;;;;;;5031471;28;20040;-68
2023/01/14 02:28:49;;;;;;;13.00;11.60;;;;;;;;;;5054462;28;20049;-68
2023/01/14 02:31:22;;;;;;;14.52;11.55;;;;;;;;;;5030695;28;20049;-69
2023/01/14 02:33:55;;;;;;;15.93;13.25;;;;;;;;;;5052818;28;20049;-69
2023/01/14 02:36:22;;;;;;;18.20;13.00;;;;;;;;;;5029916;28;20405;-69
2023/01/14 02:39:04;;;;;;;15.80;12.90;;;;;;;;;;5014017;28;20543;-69
2023/01/14 02:44:27;;;;;;;24.45;16.92;;;;;;;;;;5036722;28;20044;-69
2023/01/14 02:46:59;;;;;;;15.82;12.45;;;;;;;;;;5029783;28;20793;-69
2023/01/14 02:49:31;;;;;;;14.68;13.07;;;;;;;;;;5053382;28;20055;-68
2023/01/14 02:51:58;;;;;;;14.00;9.73;;;;;;;;;;5032529;28;20690;-69
2023/01/14 02:54:28;;;;;;;;;;;;;;;;;;5053025;28;20141;-68
2023/01/14 02:56:58;;;;;;;15.20;12.00;;;;;;;;;;5053808;28;19933;-68
2023/01/14 02:59:38;;;;;;;17.63;13.25;;;;;;;;;;5035415;28;20060;-68
2023/01/14 03:02:12;;;;;;;31.38;21.63;;;;;;;;;;5051764;28;20106;-68
2023/01/14 03:04:48;;;;;;;31.05;24.75;;;;;;;;;;5034145;28;20048;-68
2023/01/14 03:07:24;;;;;;;37.28;30.45;;;;;;;;;;5036406;28;20613;-68
2023/01/14 03:10:04;;;;;;;47.35;38.55;;;;;;;;;;5035350;28;20531;-68
2023/01/14 03:12:43;;;;;;;55.65;46.80;;;;;;;;;;5040310;28;20045;-68
2023/01/14 03:15:23;;;;;;;60.08;51.38;;;;;;;;;;5035488;28;20130;-67
2023/01/14 03:17:53;;;;;;;49.35;40.30;;;;;;;;;;5038638;28;20083;-68
2023/01/14 03:20:29;;;;;;;41.85;32.90;;;;;;;;;;5036601;28;20079;-67
2023/01/14 03:22:58;;;;;;;36.55;29.10;;;;;;;;;;5055377;28;20032;-67
2023/01/14 03:25:27;;;;;;;29.88;23.38;;;;;;;;;;5053540;28;20079;-67
2023/01/14 03:28:01;;;;;;;29.20;23.45;;;;;;;;;;5022526;28;20078;-68
2023/01/14 03:30:30;;;;;;;27.10;20.83;;;;;;;;;;5036440;28;20143;-67
2023/01/14 03:33:08;;;;;;;31.17;22.58;;;;;;;;;;5054070;28;20060;-67
2023/01/14 03:35:39;;;;;;;28.00;22.35;;;;;;;;;;5032264;28;20040;-67
2023/01/14 03:38:15;;;;;;;27.00;21.98;;;;;;;;;;5037168;28;20146;-68
2023/01/14 03:40:42;;;;;;;21.27;16.85;;;;;;;;;;5034011;28;20535;-68
2023/01/14 03:43:13;;;;;;;22.75;16.67;;;;;;;;;;5037678;28;20128;-67
2023/01/14 03:45:41;;;;;;;21.75;16.00;;;;;;;;;;5036094;28;20052;-68
2023/01/14 03:48:09;;;;;;;22.60;16.13;;;;;;;;;;5040762;28;20164;-68
2023/01/14 03:50:45;;;;;;;20.20;16.45;;;;;;;;;;5039793;28;20045;-67
2023/01/14 03:53:19;;;;;;;17.45;12.27;;;;;;;;;;5042448;28;20851;-68
2023/01/14 03:56:04;;;;;;;22.92;17.73;;;;;;;;;;5044657;28;20045;-68
2023/01/14 03:58:41;;;;;;;18.85;15.88;;;;;;;;;;5042164;28;20041;-67
2023/01/14 04:01:10;;;;;;;22.10;13.10;;;;;;;;;;5042282;28;20315;-67
2023/01/14 04:03:38;;;;;;;23.40;18.08;;;;;;;;;;5043343;28;20132;-68
2023/01/14 04:06:05;;;;;;;24.33;21.38;;;;;;;;;;5030312;28;20056;-68
2023/01/14 04:08:32;;;;;;;40.70;25.15;;;;;;;;;;5043748;28;20140;-68
2023/01/14 04:10:59;;;;;;;24.23;19.33;;;;;;;;;;5045904;28;20111;-68
2023/01/14 04:16:12;;;;;;;21.52;18.35;;;;;;;;;;5046629;28;20048;-68
2023/01/14 04:18:38;;;;;;;24.38;18.48;;;;;;;;;;5042496;28;20053;-68
2023/01/14 04:21:05;;;;;;;24.73;18.20;;;;;;;;;;5058390;28;20631;-68
2023/01/14 04:23:32;;;;;;;24.67;20.38;;;;;;;;;;5042352;28;20056;-68
2023/01/14 04:25:59;;;;;;;21.58;17.48;;;;;;;;;;5043130;28;20033;-68
2023/01/14 04:28:27;;;;;;;21.48;18.30;;;;;;;;;;5037685;28;20033;-69
2023/01/14 04:30:54;;;;;;;22.83;17.05;;;;;;;;;;5037305;28;20045;-68
2023/01/14 04:33:21;;;;;;;21.25;17.52;;;;;;;;;;5035593;28;20133;-68
2023/01/14 04:35:48;;;;;;;22.13;17.80;;;;;;;;;;5032269;28;20064;-68
2023/01/14 04:38:16;;;;;;;19.17;15.70;;;;;;;;;;5037752;28;20049;-67
2023/01/14 04:40:43;;;;;;;22.50;17.20;;;;;;;;;;5037803;28;20061;-67
2023/01/14 04:43:10;;;;;;;23.73;19.55;;;;;;;;;;5042312;28;20053;-67
2023/01/14 04:45:37;;;;;;;21.92;18.88;;;;;;;;;;5032808;28;20048;-67
2023/01/14 04:48:04;;;;;;;24.00;18.90;;;;;;;;;;5038795;28;20037;-67
2023/01/14 04:50:31;;;;;;;30.98;23.77;;;;;;;;;;5032077;28;20037;-67
2023/01/14 04:53:05;;;;;;;42.55;30.55;;;;;;;;;;5038162;28;20088;-67
2023/01/14 04:55:37;;;;;;;35.88;22.80;;;;;;;;;;5036455;28;20039;-67
2023/01/14 04:58:04;;;;;;;44.85;30.23;;;;;;;;;;5041420;28;20047;-67
2023/01/14 05:00:31;;;;;;;54.03;27.90;;;;;;;;;;5034551;28;20029;-67
2023/01/14 05:03:00;;;;;;;45.55;33.22;;;;;;;;;;5034449;28;20049;-67
2023/01/14 05:05:27;;;;;;;47.47;29.77;;;;;;;;;;5035578;28;20076;-67
2023/01/14 05:07:54;;;;;;;37.90;25.02;;;;;;;;;;5037223;28;20045;-67
2023/01/14 05:10:21;;;;;;;37.13;25.35;;;;;;;;;;5039510;28;20044;-68
2023/01/14 05:12:57;;;;;;;39.25;26.98;;;;;;;;;;5035967;28;20045;-67
2023/01/14 05:15:26;;;;;;;32.83;23.08;;;;;;;;;;5036674;28;20053;-67
2023/01/14 05:17:53;;;;;;;30.35;21.48;;;;;;;;;;5032506;28;20048;-66
2023/01/14 05:20:21;;;;;;;28.38;21.23;;;;;;;;;;5038315;28;20132;-67
2023/01/14 05:22:48;;;;;;;29.55;23.90;;;;;;;;;;5033372;28;20063;-67
2023/01/14 05:25:15;;;;;;;29.23;20.88;;;;;;;;;;5039812;28;20037;-67
2023/01/14 05:27:42;;;;;;;33.78;24.67;;;;;;;;;;5034950;28;20048;-68
2023/01/14 05:30:09;;;;;;;34.45;21.60;;;;;;;;;;5040045;28;20048;-69
2023/01/14 05:32:35;;;;;;;31.40;21.30;;;;;;;;;;5034829;28;20053;-69
2023/01/14 05:35:02;;;;;;;30.17;22.67;;;;;;;;;;5037306;28;20131;-68
2023/01/14 05:37:29;;;;;;;30.95;22.92;;;;;;;;;;5040853;28;20045;-67
2023/01/14 05:39:56;;;;;;;30.30;16.42;;;;;;;;;;5037153;28;20052;-68
2023/01/14 05:47:54;;;;;;;33.45;22.13;;;;;;;;;;5033582;28;20046;-68
2023/01/14 05:50:21;;;;;;;32.03;21.48;;;;;;;;;;5032029;28;20041;-68
2023/01/14 05:52:49;;;;;;;29.80;21.80;;;;;;;;;;5038475;28;20534;-68
2023/01/14 05:55:15;;;;;;;26.38;21.30;;;;;;;;;;5032917;28;20072;-68
2023/01/14 05:57:42;;;;;;;26.90;19.98;;;;;;;;;;5040813;28;20045;-67
2023/01/14 06:06:20;;;;;;;27.02;21.13;;;;;;;;;;5031672;28;20520;-69
2023/01/14 06:08:08;;;;;;;28.52;19.02;;;;;;;;;;5030503;28;20092;-68
2023/01/14 06:10:36;;;;;;;21.42;14.48;;;;;;;;;;5033003;28;20321;-68
2023/01/14 06:13:06;;;;;;;;;;;;;;;;;;5035281;28;20059;-67
2023/01/14 06:15:35;;;;;;;25.95;18.40;;;;;;;;;;5041870;28;19963;-67
2023/01/14 06:18:21;;;;;;;24.85;18.25;;;;;;;;;;5041664;28;20060;-67
2023/01/14 06:20:51;;;;;;;24.10;18.05;;;;;;;;;;5036483;28;20053;-68
2023/01/14 06:23:19;;;;;;;24.70;20.38;;;;;;;;;;5048079;28;20037;-68
2023/01/14 06:25:47;;;;;;;21.80;15.13;;;;;;;;;;5046560;28;20143;-68
2023/01/14 06:28:14;;;;;;;22.58;18.10;;;;;;;;;;5052730;28;20071;-67
2023/01/14 06:30:41;;;;;;;20.33;17.52;;;;;;;;;;5049517;28;20049;-68
2023/01/14 06:33:08;;;;;;;21.02;18.80;;;;;;;;;;5051551;28;20079;-67
2023/01/14 06:35:40;;;;;;;20.90;16.95;;;;;;;;;;5051052;28;20055;-69
2023/01/14 06:38:06;;;;;;;23.98;18.13;;;;;;;;;;5051380;28;20078;-68
2023/01/14 06:40:33;;;;;;;22.45;18.33;;;;;;;;;;5048562;28;20040;-68
2023/01/14 06:43:00;;;;;;;22.75;18.33;;;;;;;;;;5036014;28;20041;-69
2023/01/14 06:45:27;;;;;;;28.80;23.90;;;;;;;;;;5037863;28;20052;-68
2023/01/14 06:47:53;;;;;;;22.45;17.73;;;;;;;;;;5031255;28;20044;-68
2023/01/14 06:50:20;;;;;;;22.58;17.95;;;;;;;;;;5031835;28;20045;-68
2023/01/14 06:52:48;;;;;;;28.10;19.80;;;;;;;;;;5030982;28;20135;-68
2023/01/14 06:55:15;;;;;;;33.53;24.60;;;;;;;;;;5032273;28;20508;-69
2023/01/14 06:57:45;;;;;;;27.20;21.65;;;;;;;;;;5033254;28;20436;-68
2023/01/14 07:00:13;;;;;;;31.48;23.88;;;;;;;;;;5032408;28;20044;-69
2023/01/14 07:02:39;;;;;;;31.25;24.33;;;;;;;;;;5031408;28;20770;-68
2023/01/14 07:05:07;;;;;;;26.17;17.70;;;;;;;;;;5031984;28;20045;-68
2023/01/14 07:07:34;;;;;;;31.38;24.98;;;;;;;;;;5033009;28;20057;-67
2023/01/14 07:10:00;;;;;;;27.92;22.27;;;;;;;;;;5040021;28;20033;-68
2023/01/14 07:12:27;;;;;;;30.98;25.52;;;;;;;;;;5034163;28;20049;-67
2023/01/14 07:14:54;;;;;;;31.85;24.45;;;;;;;;;;5032894;28;20052;-68
2023/01/14 07:17:20;;;;;;;34.55;24.63;;;;;;;;;;5032720;28;20136;-68
2023/01/14 07:19:47;;;;;;;41.97;30.98;;;;;;;;;;5029121;28;20052;-68
2023/01/14 07:22:14;;;;;;;31.88;24.70;;;;;;;;;;5035396;28;20072;-68
2023/01/14 07:24:41;;;;;;;39.10;28.45;;;;;;;;;;5035739;28;20120;-65
2023/01/14 07:27:10;;;;;;;49.05;33.65;;;;;;;;;;5039188;28;20051;-68
2023/01/14 07:29:37;;;;;;;41.38;25.88;;;;;;;;;;5035762;28;20756;-68
2023/01/14 07:32:04;;;;;;;40.20;28.10;;;;;;;;;;5040751;28;20163;-67
2023/01/14 07:34:31;;;;;;;34.55;25.17;;;;;;;;;;5037569;28;20772;-68
2023/01/14 07:36:57;;;;;;;32.00;26.33;;;;;;;;;;5039421;28;20052;-67
2023/01/14 07:39:24;;;;;;;39.60;28.15;;;;;;;;;;5040377;28;20049;-68
2023/01/14 07:41:51;;;;;;;44.10;30.50;;;;;;;;;;5033540;28;20040;-67
2023/01/14 07:44:23;;;;;;;100.35;79.63;;;;;;;;;;5040208;28;20045;-67
2023/01/14 07:46:51;;;;;;;51.25;35.97;;;;;;;;;;5037607;28;20159;-67
2023/01/14 07:49:17;;;;;;;45.15;34.05;;;;;;;;;;5045326;28;20049;-67
2023/01/14 07:51:44;;;;;;;47.03;32.88;;;;;;;;;;5038329;28;20044;-68
2023/01/14 07:54:11;;;;;;;43.72;33.28;;;;;;;;;;5039009;28;20049;-67
2023/01/14 07:56:38;;;;;;;52.25;33.45;;;;;;;;;;5034843;28;20052;-66
2023/01/14 08:11:42;;;;;;;57.00;39.50;;;;;;;;;;5138945;27;20719;-69
2023/01/14 08:14:08;;;;;;;51.78;34.47;;;;;;;;;;5128899;27;20383;-67
2023/01/14 08:16:35;;;;;;;49.38;35.20;;;;;;;;;;5129744;27;20043;-69
2023/01/14 08:19:01;;;;;;;47.33;27.98;;;;;;;;;;5130595;27;20044;-67
2023/01/14 08:21:28;;;;;;;50.53;30.05;;;;;;;;;;5130023;27;20612;-68
2023/01/14 08:23:55;;;;;;;51.13;32.05;;;;;;;;;;5132364;27;20042;-68
2023/01/14 08:26:22;;;;;;;47.40;29.73;;;;;;;;;;5130609;27;20140;-67
2023/01/14 08:28:48;;;;;;;54.40;31.63;;;;;;;;;;5129800;27;20046;-68
2023/01/14 08:31:16;;;;;;;47.08;29.45;;;;;;;;;;5128531;27;20046;-69
2023/01/14 08:33:44;;;;;;;53.88;31.40;;;;;;;;;;5131656;27;20177;-69
2023/01/14 08:36:12;;;;;;;61.55;41.63;;;;;;;;;;5131694;27;20669;-67
2023/01/14 08:38:40;;;;;;;59.65;35.72;;;;;;;;;;5126487;27;20055;-67
2023/01/14 08:41:11;;;;;;;50.58;29.67;;;;;;;;;;5126606;27;20053;-65
2023/01/14 08:43:38;;;;;;;43.70;30.63;;;;;;;;;;5130446;27;20049;-69
2023/01/14 08:46:06;;;;;;;44.75;28.42;;;;;;;;;;5123470;27;20051;-68
2023/01/14 08:48:33;;;;;;;46.53;28.17;;;;;;;;;;5125686;27;20109;-69
2023/01/14 08:51:01;;;;;;;43.67;23.98;;;;;;;;;;5136409;27;20046;-68
2023/01/14 08:53:31;;;;;;;41.97;26.45;;;;;;;;;;5127792;27;20259;-68
2023/01/14 08:56:00;;;;;;;39.53;26.58;;;;;;;;;;5130822;27;20910;-69
2023/01/14 08:58:27;;;;;;;43.92;28.55;;;;;;;;;;5133739;27;20050;-68
2023/01/14 09:01:01;;;;;;;45.70;26.40;;;;;;;;;;5125959;27;20068;-68
2023/01/14 09:03:32;;;;;;;51.00;35.95;;;;;;;;;;5130804;27;20034;-68
2023/01/14 09:06:00;;;;;;;42.55;27.58;;;;;;;;;;5130622;27;20039;-67
2023/01/14 09:19:32;;;;;;;38.30;24.27;;;;;;;;;;5122172;27;20043;-68
2023/01/14 09:21:59;;;;;;;37.97;23.77;;;;;;;;;;5115206;27;20035;-67
2023/01/14 09:24:26;;;;;;;37.83;27.65;;;;;;;;;;5113167;27;20468;-66
2023/01/14 09:26:52;;;;;;;49.42;29.58;;;;;;;;;;5120856;27;20043;-66
2023/01/14 09:29:19;;;;;;;37.92;22.38;;;;;;;;;;5120774;27;20125;-67
2023/01/14 09:31:48;;;;;;;42.67;25.50;;;;;;;;;;5112782;27;20043;-67
2023/01/14 09:34:15;;;;;;;43.70;25.83;;;;;;;;;;5113279;27;20710;-67
2023/01/14 09:36:42;;;;;;;41.85;22.35;;;;;;;;;;5121119;27;20063;-67
2023/01/14 09:39:08;;;;;;;40.90;24.27;;;;;;;;;;5117078;27;20047;-67
2023/01/14 09:41:37;;;;;;;35.35;22.75;;;;;;;;;;5113003;27;20545;-67
2023/01/14 09:44:03;;;;;;;;;;;;;;;;;;5113057;27;20043;-67
2023/01/14 09:46:30;;;;;;;34.40;19.95;;;;;;;;;;5117595;27;20413;-66
2023/01/14 09:48:59;;;;;;;26.88;16.15;;;;;;;;;;5113908;27;20031;-66
2023/01/14 09:51:45;;;;;;;28.65;15.80;;;;;;;;;;5116101;27;20441;-67
2023/01/14 09:54:21;;;;;;;20.30;12.90;;;;;;;;;;5113837;27;20043;-67
2023/01/14 09:56:47;;;;;;;22.52;16.35;;;;;;;;;;5114492;27;20702;-67
2023/01/14 09:59:14;;;;;;;29.55;17.08;;;;;;;;;;5117738;27;20039;-67
2023/01/14 10:01:52;;;;;;;28.42;17.70;;;;;;;;;;5113184;27;20039;-67
2023/01/14 10:04:54;;;;;;;27.98;16.98;;;;;;;;;;5111446;27;20032;-68
2023/01/14 10:07:21;;;;;;;21.73;14.75;;;;;;;;;;5022326;28;20049;-67
2023/01/14 10:09:55;;;;;;;27.52;17.58;;;;;;;;;;5098703;27;20054;-67
2023/01/14 10:12:48;;;;;;;21.08;12.77;;;;;;;;;;5112956;27;20043;-69
2023/01/14 10:15:14;;;;;;;;;;;;;;;;;;5114947;27;20050;-69
2023/01/14 10:17:42;;;;;;;36.17;23.42;;;;;;;;;;5116590;27;20022;-69
2023/01/14 10:20:14;;;;;;;39.20;24.70;;;;;;;;;;5110158;27;20051;-68
2023/01/14 10:22:47;;;;;;;33.38;20.15;;;;;;;;;;5116114;27;20036;-68
2023/01/14 10:25:18;;;;;;;31.42;17.60;;;;;;;;;;5111047;27;20065;-67
2023/01/14 10:27:47;;;;;;;27.05;19.02;;;;;;;;;;5112864;27;20855;-67
2023/01/14 10:30:20;;;;;;;23.08;15.93;;;;;;;;;;5112243;27;20047;-68
2023/01/14 10:32:51;;;;;;;24.73;17.52;;;;;;;;;;5124440;27;20420;-69
2023/01/14 10:35:23;;;;;;;19.92;14.65;;;;;;;;;;5116277;27;20044;-68
2023/01/14 10:37:50;;;;;;;21.80;13.32;;;;;;;;;;5113498;27;20043;-67
2023/01/14 10:40:21;;;;;;;21.05;13.35;;;;;;;;;;5116261;27;20509;-68
2023/01/14 10:42:48;;;;;;;18.63;12.65;;;;;;;;;;5115490;27;20039;-68
2023/01/14 10:45:15;;;;;;;18.70;14.43;;;;;;;;;;5117924;27;20063;-68
2023/01/14 10:47:45;;;;;;;18.15;13.48;;;;;;;;;;5115938;27;20035;-68
2023/01/14 10:50:20;;;;;;;15.93;11.02;;;;;;;;;;5123682;27;20046;-67
2023/01/14 10:52:47;;;;;;;17.02;9.43;;;;;;;;;;5118526;27;20043;-67
2023/01/14 10:55:15;;;;;;;15.40;11.93;;;;;;;;;;5118697;27;20095;-68
2023/01/14 10:57:48;;;;;;;10.95;8.00;;;;;;;;;;5098450;27;20043;-68
2023/01/14 11:00:38;;;;;;;11.95;7.97;;;;;;;;;;5113307;27;20046;-68
2023/01/14 11:03:08;;;;;;;11.32;7.20;;;;;;;;;;5105372;27;20092;-68
2023/01/14 11:05:35;;;;;;;11.93;7.88;;;;;;;;;;5113700;27;20039;-67
2023/01/14 11:08:17;;;;;;;12.52;8.55;;;;;;;;;;5115367;27;20039;-67
2023/01/14 11:10:45;;;;;;;11.85;7.68;;;;;;;;;;5112225;27;20517;-68
2023/01/14 11:13:21;;;;;;;16.25;14.60;;;;;;;;;;5121424;27;20843;-66
2023/01/14 11:15:48;;;;;;;31.15;22.27;;;;;;;;;;5116602;27;20054;-70
2023/01/14 11:18:17;;;;;;;13.25;9.23;;;;;;;;;;5119815;27;20600;-68
2023/01/14 11:21:02;;;;;;;11.43;6.90;;;;;;;;;;5109915;27;20047;-66
2023/01/14 11:23:33;;;;;;;12.38;10.23;;;;;;;;;;5121485;27;20099;-68
2023/01/14 11:26:21;;;;;;;10.98;7.00;;;;;;;;;;5113120;27;20039;-67
2023/01/14 11:28:48;;;;;;;9.02;6.30;;;;;;;;;;5119725;27;20039;-68
2023/01/14 11:31:25;;;;;;;8.93;5.45;;;;;;;;;;5112776;27;20057;-68
2023/01/14 11:33:52;;;;;;;12.02;7.07;;;;;;;;;;5119108;27;20043;-68
2023/01/14 11:36:21;;;;;;;9.43;6.70;;;;;;;;;;5117213;27;20100;-70
2023/01/14 11:38:47;;;;;;;25.65;13.15;;;;;;;;;;5117960;27;20039;-70
2023/01/14 11:41:52;;;;;;;16.80;9.13;;;;;;;;;;5111501;27;20031;-68
2023/01/14 11:44:20;;;;;;;;;;;;;;;;;;5035082;28;20045;-69
2023/01/14 11:47:11;;;;;;;18.38;10.57;;;;;;;;;;5037599;28;20721;-67
2023/01/14 11:49:40;;;;;;;15.75;10.82;;;;;;;;;;5096037;27;20053;-68
2023/01/14 11:52:16;;;;;;;17.27;10.63;;;;;;;;;;5117428;27;20059;-68
2023/01/14 11:54:44;;;;;;;15.38;10.73;;;;;;;;;;5105153;27;20048;-67
2023/01/14 11:57:15;;;;;;;25.13;12.20;;;;;;;;;;5116193;27;20096;-68
2023/01/14 11:59:42;;;;;;;16.10;10.25;;;;;;;;;;5114574;27;20062;-66
2023/01/14 12:02:09;;;;;;;28.05;16.45;;;;;;;;;;5109151;27;20040;-68
2023/01/14 12:04:40;;;;;;;17.75;9.13;;;;;;;;;;5112972;27;20042;-68
2023/01/14 12:07:12;;;;;;;20.05;14.07;;;;;;;;;;5119756;27;20035;-68
2023/01/14 12:09:45;;;;;;;12.73;7.95;;;;;;;;;;5111148;27;20088;-67
2023/01/14 12:12:15;;;;;;;14.10;10.07;;;;;;;;;;5113931;27;20063;-67
2023/01/14 12:17:41;;;;;;;15.48;9.85;;;;;;;;;;5112188;27;20039;-68
2023/01/14 12:20:12;;;;;;;15.40;13.00;;;;;;;;;;5115172;27;20310;-68
2023/01/14 12:23:00;;;;;;;15.10;10.77;;;;;;;;;;5112956;27;20065;-68
2023/01/14 12:25:33;;;;;;;15.55;10.77;;;;;;;;;;5110173;27;20059;-68
2023/01/14 12:28:09;;;;;;;18.42;13.15;;;;;;;;;;5113288;27;20772;-67
2023/01/14 12:30:40;;;;;;;34.95;21.60;;;;;;;;;;5106177;27;20137;-68
2023/01/14 12:33:09;;;;;;;23.70;13.93;;;;;;;;;;5116810;27;20162;-68
2023/01/14 12:36:00;;;;;;;21.67;14.68;;;;;;;;;;5122724;27;20062;-67
2023/01/14 12:47:03;;;;;;;23.75;14.23;;;;;;;;;;5124320;27;20038;-67
2023/01/14 12:49:33;;;;;;;26.42;18.38;;;;;;;;;;5122292;27;20050;-68
2023/01/14 12:52:01;;;;;;;22.42;18.00;;;;;;;;;;5119293;27;20682;-67
2023/01/14 12:54:30;;;;;;;17.92;12.93;;;;;;;;;;5125598;27;20593;-67
2023/01/14 12:56:58;;;;;;;19.73;13.73;;;;;;;;;;5123909;27;20043;-67
2023/01/14 12:59:30;;;;;;;19.27;13.35;;;;;;;;;;5124971;27;20165;-67
2023/01/14 13:01:57;;;;;;;21.33;12.90;;;;;;;;;;5120698;27;20035;-67
2023/01/14 13:04:26;;;;;;;18.77;13.02;;;;;;;;;;5124374;27;20765;-67
2023/01/14 13:06:55;;;;;;;21.02;13.63;;;;;;;;;;5117621;27;20043;-68
2023/01/14 13:09:24;;;;;;;20.20;11.32;;;;;;;;;;5120178;27;20126;-68
2023/01/14 13:11:59;;;;;;;15.15;11.98;;;;;;;;;;5120327;27;20063;-68
2023/01/14 13:14:33;;;;;;;16.45;10.60;;;;;;;;;;5121341;27;20046;-67
2023/01/14 13:17:02;;;;;;;16.55;9.63;;;;;;;;;;5116077;27;20383;-68
2023/01/14 13:19:34;;;;;;;16.13;11.63;;;;;;;;;;5119941;27;20051;-68
2023/01/14 13:22:02;;;;;;;17.05;11.13;;;;;;;;;;5123900;27;20039;-68
2023/01/14 13:24:57;;;;;;;14.65;9.55;;;;;;;;;;5120228;27;20046;-68
2023/01/14 13:27:36;;;;;;;15.25;13.32;;;;;;;;;;5100670;27;20047;-68
2023/01/14 13:30:17;;;;;;;15.52;11.27;;;;;;;;;;5124783;27;20033;-69
2023/01/14 13:33:00;;;;;;;16.13;10.55;;;;;;;;;;5118491;27;20054;-67
2023/01/14 13:35:30;;;;;;;16.75;12.20;;;;;;;;;;5113004;27;20046;-67
2023/01/14 13:38:01;;;;;;;15.82;11.68;;;;;;;;;;5119434;27;20062;-68
2023/01/14 13:40:31;;;;;;;22.25;13.75;;;;;;;;;;5124917;27;20043;-67
2023/01/14 13:43:00;;;;;;;23.70;15.35;;;;;;;;;;5116828;27;20119;-68
2023/01/14 13:45:27;;;;;;;17.58;11.73;;;;;;;;;;5119032;27;20675;-68
2023/01/14 13:47:56;;;;;;;18.85;12.75;;;;;;;;;;5120004;27;20584;-67
2023/01/14 13:50:28;;;;;;;13.90;10.75;;;;;;;;;;5121998;27;20047;-68
2023/01/14 13:53:02;;;;;;;14.65;10.93;;;;;;;;;;5124282;27;20079;-68
2023/01/14 13:55:30;;;;;;;18.08;11.95;;;;;;;;;;5120087;27;20043;-69
2023/01/14 13:58:00;;;;;;;22.73;17.00;;;;;;;;;;5124946;27;20120;-68
2023/01/14 14:00:28;;;;;;;18.40;12.40;;;;;;;;;;5122270;27;20054;-69
2023/01/14 14:03:15;;;;;;;17.80;11.50;;;;;;;;;;5117332;27;20048;-67
2023/01/14 14:05:43;;;;;;;17.00;11.05;;;;;;;;;;5117035;27;20166;-69
2023/01/14 14:08:10;;;;;;;18.65;13.18;;;;;;;;;;5118734;27;20039;-70
2023/01/14 14:10:40;;;;;;;22.25;13.23;;;;;;;;;;5117942;27;20070;-69
2023/01/14 14:16:22;;;;;;;17.58;12.13;;;;;;;;;;5120934;27;20076;-69
2023/01/14 14:18:55;;;;;;;13.18;10.73;;;;;;;;;;5121218;27;20035;-68
2023/01/14 14:21:23;;;;;;;17.33;14.52;;;;;;;;;;5123739;27;20425;-68
2023/01/14 14:23:51;;;;;;;15.90;11.68;;;;;;;;;;5120642;27;20043;-69
2023/01/14 14:26:20;;;;;;;20.77;12.68;;;;;;;;;;5120499;27;20771;-68
2023/01/14 14:28:48;;;;;;;26.10;16.40;;;;;;;;;;5128500;27;20144;-69
2023/01/14 14:31:16;;;;;;;25.98;16.90;;;;;;;;;;5118364;27;20047;-70
2023/01/14 14:33:44;;;;;;;32.58;21.83;;;;;;;;;;5113672;27;20043;-68
2023/01/14 14:36:17;;;;;;;28.83;17.63;;;;;;;;;;5118991;27;20158;-69
2023/01/14 14:38:50;;;;;;;25.50;15.68;;;;;;;;;;5103771;27;20064;-69
2023/01/14 14:41:17;;;;;;;33.58;18.35;;;;;;;;;;5117537;27;20119;-69
2023/01/14 14:43:54;;;;;;;50.90;30.58;;;;;;;;;;5103612;27;21442;-69
2023/01/14 14:46:25;;;;;;;37.22;20.88;;;;;;;;;;5126338;27;20042;-67
2023/01/14 14:48:52;;;;;;;27.70;18.40;;;;;;;;;;5120776;27;20716;-67
2023/01/14 14:51:29;;;;;;;26.10;17.17;;;;;;;;;;5100228;27;20058;-67
2023/01/14 14:53:58;;;;;;;29.27;16.58;;;;;;;;;;5117856;27;20587;-68
2023/01/14 14:56:28;;;;;;;20.35;14.23;;;;;;;;;;5115440;27;20817;-67
2023/01/14 14:58:56;;;;;;;21.38;15.35;;;;;;;;;;5116472;27;20135;-68
2023/01/14 15:01:31;;;;;;;26.02;19.00;;;;;;;;;;5118572;27;20074;-67
2023/01/14 15:03:58;;;;;;;23.80;15.55;;;;;;;;;;5115038;27;20049;-68
2023/01/14 15:06:26;;;;;;;21.73;15.73;;;;;;;;;;5110906;27;20034;-68
2023/01/14 15:08:54;;;;;;;19.35;13.23;;;;;;;;;;5116029;27;20046;-69
2023/01/14 15:11:21;;;;;;;;;;;;;;;;;;5114076;27;20057;-69
2023/01/14 15:13:48;;;;;;;27.92;20.23;;;;;;;;;;5116876;27;19953;-68
2023/01/14 15:16:17;;;;;;;47.30;23.92;;;;;;;;;;5111088;27;20080;-69
2023/01/14 15:18:47;;;;;;;;;;;;;;;;;;5118140;27;20108;-67
2023/01/14 15:21:19;;;;;;;21.73;16.83;;;;;;;;;;5110096;27;20041;-67
2023/01/14 15:23:47;;;;;;;20.17;13.50;;;;;;;;;;5119254;27;20043;-68
2023/01/14 15:26:20;;;;;;;18.55;13.82;;;;;;;;;;5118385;27;20066;-69
2023/01/14 15:28:47;;;;;;;20.27;14.10;;;;;;;;;;5120987;27;20046;-67
2023/01/14 15:31:33;;;;;;;20.25;12.57;;;;;;;;;;5112307;27;20046;-67
2023/01/14 15:34:18;;;;;;;20.92;11.85;;;;;;;;;;5117998;27;20054;-67